Terminal Aerodrome Forecast
Issued by NWS Goodland, KS

Home | Current Version | Previous Version | Text Only | Print | Product List | Glossary On
Versions: 1 2 3 4 5 6 7 8 9 10 11 12 13 14 15 16
000
FTUS43 KGLD 210500
TAFGLD
TAF
KGLD 210539Z 2106/2206 25006KT P6SM SKC
     FM211000 36016G27KT P6SM SCT120
     FM212000 03011KT P6SM SCT120
     FM220100 13007KT P6SM SKC=

USA.gov is the U.S. government's official web portal to all federal, state and local government web resources and services.